VCTRY47 KNTU-KNTU
Flight info
| Callsign | VCTRY47 |
|---|---|
| Flight time | N/A |
| Altitude | 17000 |
| Route | CANOB KW36A HOBOH ZIBUT KW45A IMELL KW36A ZINEP ROWZO HUGEE HENIP WENID |
| Aircraft | F18/H-A/C |
Departure
| Time | 2026-04-21 16:31 |
|---|---|
| Airport | Oceana Naval Air Station (KNTU) |
Arrival
| Time | N/A |
|---|---|
| Airport | Oceana Naval Air Station (KNTU) |
| Time | Latitude | Longitude | Altitude | Speed | Heading |
|---|---|---|---|---|---|
| 2026-04-21 16:23 | 36.81456 | -76.03526 | 30 ft | 0 kts | 45° |
| 2026-04-21 16:25 | 36.81472 | -76.03513 | 30 ft | 12 kts | 17° |
| 2026-04-21 16:26 | 36.81523 | -76.03556 | 30 ft | 9 kts | 316° |
| 2026-04-21 16:26 | 36.81575 | -76.03623 | 30 ft | 14 kts | 328° |
| 2026-04-21 16:26 | 36.81664 | -76.03557 | 30 ft | 20 kts | 41° |
| 2026-04-21 16:26 | 36.81784 | -76.03423 | 30 ft | 27 kts | 41° |
| 2026-04-21 16:27 | 36.81943 | -76.03248 | 30 ft | 33 kts | 43° |
| 2026-04-21 16:27 | 36.82125 | -76.03041 | 30 ft | 32 kts | 42° |
| 2026-04-21 16:27 | 36.82254 | -76.02898 | 30 ft | 28 kts | 42° |
| 2026-04-21 16:27 | 36.82375 | -76.02761 | 30 ft | 1 kts | 41° |
| 2026-04-21 16:28 | 36.82403 | -76.02730 | 30 ft | 10 kts | 41° |
| 2026-04-21 16:28 | 36.82474 | -76.02651 | 30 ft | 18 kts | 42° |
| 2026-04-21 16:28 | 36.82570 | -76.02543 | 30 ft | 19 kts | 43° |
| 2026-04-21 16:28 | 36.82689 | -76.02408 | 30 ft | 27 kts | 42° |
| 2026-04-21 16:29 | 36.82833 | -76.02258 | 30 ft | 11 kts | 7° |
| 2026-04-21 16:29 | 36.82878 | -76.02288 | 30 ft | 0 kts | 313° |
| 2026-04-21 16:30 | 36.82894 | -76.02326 | 30 ft | 12 kts | 269° |
| 2026-04-21 16:31 | 36.82721 | -76.02562 | 30 ft | 100 kts | 222° |
| 2026-04-21 16:31 | 36.81918 | -76.03471 | 251 ft | 189 kts | 223° |
| 2026-04-21 16:31 | 36.80687 | -76.04893 | 790 ft | 284 kts | 221° |
| 2026-04-21 16:31 | 36.79064 | -76.05960 | 1367 ft | 283 kts | 193° |
| 2026-04-21 16:32 | 36.78141 | -76.06096 | 1679 ft | 285 kts | 179° |
| 2026-04-21 16:32 | 36.76171 | -76.05724 | 2393 ft | 288 kts | 168° |
| 2026-04-21 16:33 | 36.74187 | -76.05252 | 3091 ft | 293 kts | 168° |
| 2026-04-21 16:33 | 36.72250 | -76.04793 | 3779 ft | 294 kts | 169° |